Time;durP1;ratioP1;P1;durP2;ratioP2;P2;SDS_P1;SDS_P2;PMS_P1;PMS_P2;Temp;Humidity;BMP_temperature;BMP_pressure;BME280_temperature;BME280_humidity;BME280_pressure;Samples;Min_cycle;Max_cycle;Signal;HPM_P1;HPM_P2
2023/09/03 00:00:37;;;;;;;8.35;5.15;;;;;;;22.98;63.60;99823.38;5113624;28;20527;-74
2023/09/03 00:03:03;;;;;;;11.18;5.00;;;;;;;23.35;61.75;99812.66;5132088;27;20487;-74
2023/09/03 00:05:28;;;;;;;11.30;5.38;;;;;;;23.01;63.28;99816.84;5113597;28;20106;-74
2023/09/03 00:07:54;;;;;;;7.18;4.85;;;;;;;23.24;62.59;99815.56;5113505;28;20506;-74
2023/09/03 00:10:20;;;;;;;10.95;5.63;;;;;;;22.84;64.26;99813.66;5132025;28;20023;-74
2023/09/03 00:12:45;;;;;;;6.65;4.90;;;;;;;22.60;64.68;99818.16;5113381;28;20096;-74
2023/09/03 00:15:12;;;;;;;7.38;5.13;;;;;;;22.63;64.53;99825.91;5131895;28;20070;-74
2023/09/03 00:17:38;;;;;;;6.38;5.10;;;;;;;22.18;65.98;99817.75;5131813;28;20020;-74
2023/09/03 00:20:04;;;;;;;18.23;5.68;;;;;;;22.21;66.33;99816.13;5131997;28;20023;-74
2023/09/03 00:22:30;;;;;;;15.32;4.88;;;;;;;22.41;65.81;99822.22;5113330;28;20026;-74
2023/09/03 00:24:55;;;;;;;8.13;5.38;;;;;;;22.46;64.95;99810.44;5131811;28;20019;-74
2023/09/03 00:27:21;;;;;;;8.00;4.85;;;;;;;22.37;65.50;99822.22;5132281;27;20019;-74
2023/09/03 00:29:46;;;;;;;13.35;5.63;;;;;;;22.25;65.41;99806.38;5136005;27;20026;-74
2023/09/03 00:32:12;;;;;;;7.93;4.53;;;;;;;22.27;66.06;99814.53;5116738;27;20023;-74
2023/09/03 00:34:38;;;;;;;8.93;5.40;;;;;;;22.56;65.07;99806.78;5096893;28;20027;-74
2023/09/03 00:37:03;;;;;;;13.60;5.50;;;;;;;22.48;65.37;99819.41;5097054;28;20389;-74
2023/09/03 00:39:28;;;;;;;10.07;5.43;;;;;;;22.51;65.11;99815.75;5115270;28;20541;-74
2023/09/03 00:41:54;;;;;;;13.68;5.80;;;;;;;22.46;64.99;99809.59;5115251;28;20038;-74
2023/09/03 00:44:20;;;;;;;9.80;5.13;;;;;;;22.08;66.23;99812.84;5096786;28;20035;-74
2023/09/03 00:46:45;;;;;;;9.23;6.07;;;;;;;22.00;66.10;99818.56;5097169;28;20515;-74
2023/09/03 00:49:13;;;;;;;9.65;5.50;;;;;;;22.14;65.77;99814.94;5114904;28;20027;-74
2023/09/03 00:51:39;;;;;;;12.27;5.93;;;;;;;22.13;65.45;99809.63;5096736;28;20031;-74
2023/09/03 00:54:06;;;;;;;16.63;5.78;;;;;;;22.26;65.32;99807.16;5114830;28;20487;-73
2023/09/03 00:56:32;;;;;;;11.38;5.40;;;;;;;22.17;65.21;99799.03;5115008;28;20024;-74
2023/09/03 00:58:59;;;;;;;14.13;6.15;;;;;;;22.45;64.15;99811.66;5114751;28;20040;-73
2023/09/03 01:01:27;;;;;;;14.23;5.85;;;;;;;22.21;65.13;99799.88;5114788;28;20026;-74
2023/09/03 01:03:53;;;;;;;20.65;6.07;;;;;;;22.37;64.73;99798.63;5096519;28;20106;-74
2023/09/03 01:06:19;;;;;;;9.82;5.70;;;;;;;22.52;64.27;99800.25;5096497;28;20051;-74
2023/09/03 01:08:45;;;;;;;17.25;6.32;;;;;;;22.62;64.01;99786.41;5114679;28;20070;-74
2023/09/03 01:11:23;;;;;;;9.38;7.00;;;;;;;22.74;63.68;99803.09;5114715;28;20024;-74
2023/09/03 01:14:23;;;;;;;9.60;5.53;;;;;;;22.49;64.63;99789.69;5096422;28;20024;-74
2023/09/03 01:17:06;;;;;;;15.55;5.50;;;;;;;22.65;63.71;99788.44;5110340;28;20044;-74
2023/09/03 01:19:40;;;;;;;8.52;5.57;;;;;;;22.82;63.76;99790.44;5114530;28;20051;-74
2023/09/03 01:22:33;;;;;;;11.65;5.70;;;;;;;22.93;63.43;99790.41;5114558;28;20023;-74
2023/09/03 01:25:30;;;;;;;8.10;5.10;;;;;;;23.17;62.45;99792.75;5072582;28;20032;-74
2023/09/03 01:28:26;;;;;;;6.40;4.90;;;;;;;23.27;62.31;99795.59;5079400;28;20539;-74
2023/09/03 01:31:01;;;;;;;8.02;5.10;;;;;;;23.39;62.16;99805.72;5114395;28;20408;-74
2023/09/03 01:35:59;;;;;;;8.48;5.90;;;;;;;23.29;62.66;99789.50;5589976;22;20047;-88
2023/09/03 01:38:25;;;;;;;11.70;5.63;;;;;;;23.30;62.74;99793.97;5093321;28;20012;-89
2023/09/03 01:40:51;;;;;;;39.17;8.00;;;;;;;23.16;63.35;99791.94;5075929;28;20031;-89
2023/09/03 01:43:17;;;;;;;18.83;5.80;;;;;;;22.86;63.65;99761.91;5076753;28;20020;-89
2023/09/03 01:45:55;;;;;;;21.38;7.38;;;;;;;22.92;64.23;99790.81;5076612;28;20031;-89
2023/09/03 01:48:41;;;;;;;9.30;6.22;;;;;;;23.04;64.13;99787.50;5094914;28;20019;-89
2023/09/03 01:51:21;;;;;;;10.50;6.35;;;;;;;22.97;64.13;99785.50;5076758;28;20096;-89
2023/09/03 01:54:12;;;;;;;;;;;;;;;22.84;64.77;99788.00;5077129;28;20106;-89
2023/09/03 01:56:45;;;;;;;13.68;5.75;;;;;;;22.59;65.98;99785.19;5076476;28;19918;-88
2023/09/03 01:59:19;;;;;;;19.48;6.78;;;;;;;22.42;66.40;99786.81;5076244;28;20507;-89
2023/09/03 02:01:48;;;;;;;27.10;6.70;;;;;;;22.46;65.83;99779.09;5094471;28;20031;-89
2023/09/03 02:04:14;;;;;;;9.80;6.53;;;;;;;22.19;67.31;99776.66;5076392;28;20484;-88
2023/09/03 02:06:44;;;;;;;26.55;7.70;;;;;;;21.82;69.23;99775.00;5076559;28;20020;-89
2023/09/03 02:09:10;;;;;;;12.07;7.30;;;;;;;21.45;70.12;99762.75;5076242;28;20031;-88
2023/09/03 02:11:35;;;;;;;19.58;7.38;;;;;;;21.34;70.62;99787.50;5075986;28;20027;-89
2023/09/03 02:14:01;;;;;;;17.00;7.10;;;;;;;21.09;71.10;99782.53;5076175;28;20151;-88
2023/09/03 02:16:26;;;;;;;14.20;7.50;;;;;;;20.81;71.23;99767.78;5076098;28;20027;-89
2023/09/03 02:18:51;;;;;;;9.27;7.75;;;;;;;20.96;70.87;99779.22;5076090;28;20507;-89
2023/09/03 02:21:17;;;;;;;9.52;7.20;;;;;;;20.89;70.26;99780.81;5076039;28;20032;-88
2023/09/03 02:23:42;;;;;;;14.02;7.50;;;;;;;20.48;69.97;99758.22;5076240;28;20066;-88
2023/09/03 02:26:08;;;;;;;10.93;7.57;;;;;;;20.41;70.08;99763.88;5076121;28;20063;-89
2023/09/03 02:28:36;;;;;;;11.05;7.40;;;;;;;20.53;69.87;99786.25;5075930;28;20476;-89
2023/09/03 02:31:02;;;;;;;10.82;7.78;;;;;;;20.45;69.43;99776.88;5093689;28;20039;-88
2023/09/03 02:33:28;;;;;;;12.27;7.65;;;;;;;20.28;68.90;99758.50;5075607;28;20422;-89
2023/09/03 02:35:54;;;;;;;11.18;7.85;;;;;;;20.40;67.61;99788.59;5075440;28;20100;-88
2023/09/03 02:38:19;;;;;;;10.40;8.93;;;;;;;20.32;67.21;99778.38;5075818;28;20110;-88
2023/09/03 02:40:45;;;;;;;14.57;7.82;;;;;;;20.24;67.35;99790.91;5075746;28;20119;-89
2023/09/03 02:43:12;;;;;;;17.88;8.85;;;;;;;20.34;66.96;99793.03;5075293;28;20074;-88
2023/09/03 02:45:37;;;;;;;15.80;8.45;;;;;;;20.29;66.66;99796.22;5075635;28;20066;-88
2023/09/03 02:48:03;;;;;;;12.80;7.78;;;;;;;20.48;65.63;99795.13;5075672;28;20028;-88
2023/09/03 02:50:29;;;;;;;15.00;7.55;;;;;;;20.43;65.59;99796.31;5075113;28;20024;-88
2023/09/03 02:52:54;;;;;;;11.43;7.60;;;;;;;20.37;65.37;99789.41;5075660;28;20066;-89
2023/09/03 02:55:20;;;;;;;12.30;7.78;;;;;;;20.28;65.62;99792.59;5075274;28;20024;-89
2023/09/03 02:57:45;;;;;;;10.88;7.72;;;;;;;20.05;66.26;99785.09;5075292;28;20046;-88
2023/09/03 03:00:11;;;;;;;12.38;8.02;;;;;;;19.93;66.19;99765.53;5075305;28;20054;-89
2023/09/03 03:02:36;;;;;;;17.02;8.93;;;;;;;19.87;66.15;99755.69;5075012;28;20028;-89
2023/09/03 03:05:03;;;;;;;12.05;8.40;;;;;;;19.97;66.04;99777.72;5075221;28;20047;-89
2023/09/03 03:07:30;;;;;;;13.52;8.40;;;;;;;19.73;66.21;99754.34;5075015;28;20051;-89
2023/09/03 03:09:55;;;;;;;12.50;8.40;;;;;;;19.78;66.49;99781.56;5075212;28;20020;-88
2023/09/03 03:12:21;;;;;;;13.07;7.60;;;;;;;19.63;66.69;99775.75;5075051;28;20028;-87
2023/09/03 03:14:48;;;;;;;28.30;9.45;;;;;;;19.76;66.03;99762.09;5075014;28;20029;-89
2023/09/03 03:17:13;;;;;;;22.48;8.63;;;;;;;19.71;66.30;99784.31;5074875;28;20035;-88
2023/09/03 03:19:39;;;;;;;17.02;9.52;;;;;;;19.69;66.16;99770.53;5074997;28;20027;-89
2023/09/03 03:22:04;;;;;;;10.15;8.20;;;;;;;19.62;65.96;99762.78;5074809;28;20024;-89
2023/09/03 03:24:30;;;;;;;17.83;9.02;;;;;;;19.62;65.85;99751.44;5092825;28;20054;-88
2023/09/03 03:26:55;;;;;;;10.43;7.97;;;;;;;19.71;65.98;99779.47;5074737;28;20032;-88
2023/09/03 03:29:21;;;;;;;15.50;9.15;;;;;;;19.65;66.41;99792.38;5074610;28;20093;-88
2023/09/03 03:31:46;;;;;;;12.15;8.43;;;;;;;19.76;65.76;99781.16;5074706;28;20031;-89
2023/09/03 03:34:12;;;;;;;15.88;8.88;;;;;;;19.80;65.59;99778.34;5074757;28;20415;-88
2023/09/03 03:36:37;;;;;;;19.77;8.93;;;;;;;19.87;64.90;99782.06;5074692;28;20063;-88
2023/09/03 03:39:03;;;;;;;29.83;9.27;;;;;;;19.75;65.30;99794.50;5074765;28;20036;-89
2023/09/03 03:41:28;;;;;;;25.38;10.13;;;;;;;19.64;65.67;99793.56;5074587;28;20031;-88
2023/09/03 03:43:54;;;;;;;25.00;10.40;;;;;;;19.61;65.65;99786.69;5074467;28;20016;-88
2023/09/03 03:46:20;;;;;;;16.27;7.80;;;;;;;19.60;65.64;99787.06;5092492;28;20138;-88
2023/09/03 03:48:47;;;;;;;53.03;11.13;;;;;;;19.84;65.53;99807.56;5074609;28;20059;-89
2023/09/03 03:51:13;;;;;;;157.52;15.93;;;;;;;19.78;65.52;99792.91;5074285;28;20097;-88
2023/09/03 03:53:40;;;;;;;46.15;10.20;;;;;;;19.66;66.29;99796.84;5092370;28;20480;-88
2023/09/03 03:56:07;;;;;;;50.08;10.43;;;;;;;19.49;67.30;99796.28;5074501;28;20092;-88
2023/09/03 03:58:35;;;;;;;35.47;9.90;;;;;;;19.41;68.21;99791.72;5074248;28;20023;-89
2023/09/03 04:01:11;;;;;;;19.27;9.32;;;;;;;19.34;68.88;99792.44;5074308;28;20023;-88
2023/09/03 04:03:36;;;;;;;15.63;8.85;;;;;;;19.31;68.64;99770.53;5073554;28;20055;-88
2023/09/03 04:06:02;;;;;;;34.13;9.82;;;;;;;19.40;68.62;99795.75;5074315;28;20031;-89
2023/09/03 04:08:32;;;;;;;25.77;10.20;;;;;;;19.24;68.46;99781.00;5074250;28;20104;-89
2023/09/03 04:11:03;;;;;;;24.20;10.60;;;;;;;19.40;68.79;99792.91;5092287;28;20043;-88
2023/09/03 04:13:29;;;;;;;22.70;10.63;;;;;;;19.29;69.29;99795.63;5091959;28;20135;-88
2023/09/03 04:15:56;;;;;;;21.92;8.52;;;;;;;19.07;69.54;99769.06;5074065;28;20126;-88
2023/09/03 04:18:23;;;;;;;23.98;9.98;;;;;;;19.32;69.54;99796.91;5074328;28;20032;-89
2023/09/03 04:20:57;;;;;;;20.67;10.27;;;;;;;19.46;68.84;99779.22;5092672;28;20525;-88
2023/09/03 04:23:24;;;;;;;30.45;10.27;;;;;;;19.58;68.38;99790.28;5094321;28;20073;-88
2023/09/03 04:25:51;;;;;;;17.80;10.75;;;;;;;19.63;67.29;99753.06;5112507;28;20051;-89
2023/09/03 04:28:17;;;;;;;19.00;10.57;;;;;;;19.96;67.03;99778.94;5094114;28;20030;-89
2023/09/03 04:30:43;;;;;;;22.67;10.98;;;;;;;20.21;66.00;99792.50;5094181;28;20028;-89
2023/09/03 04:33:08;;;;;;;17.60;8.90;;;;;;;20.54;65.36;99789.91;5094177;28;20035;-88
2023/09/03 04:35:35;;;;;;;24.50;10.25;;;;;;;20.78;63.93;99771.38;5093825;28;20052;-88
2023/09/03 04:38:02;;;;;;;17.52;9.05;;;;;;;21.08;63.10;99795.13;5094271;28;20114;-89
2023/09/03 04:40:28;;;;;;;21.55;10.15;;;;;;;21.22;62.78;99791.50;5094116;28;20099;-88
2023/09/03 04:42:53;;;;;;;13.30;9.02;;;;;;;21.24;62.15;99769.97;5094152;28;20066;-89
2023/09/03 04:45:19;;;;;;;11.85;8.90;;;;;;;21.42;61.62;99777.78;5094147;28;20058;-88
2023/09/03 04:47:47;;;;;;;12.32;9.10;;;;;;;21.49;60.82;99768.44;5093924;28;20410;-88
2023/09/03 04:50:12;;;;;;;22.00;10.18;;;;;;;21.42;61.15;99772.09;5093723;28;20396;-89
2023/09/03 04:52:42;;;;;;;17.67;11.13;;;;;;;21.39;61.28;99773.69;5094285;28;20030;-89
2023/09/03 04:55:08;;;;;;;13.82;9.20;;;;;;;21.23;61.33;99759.00;5094114;28;20249;-89
2023/09/03 04:57:33;;;;;;;13.32;9.45;;;;;;;20.89;62.33;99760.91;5093882;28;20428;-89
2023/09/03 04:59:59;;;;;;;12.52;9.05;;;;;;;20.96;62.25;99750.78;5093635;28;20024;-89
2023/09/03 05:02:24;;;;;;;18.02;9.25;;;;;;;21.04;62.13;99750.41;5094146;28;20388;-89
2023/09/03 05:04:50;;;;;;;17.00;9.02;;;;;;;21.06;61.81;99757.72;5093970;28;20384;-88
2023/09/03 05:07:15;;;;;;;29.33;9.30;;;;;;;20.94;62.54;99753.22;5093889;28;20056;-88
2023/09/03 05:09:40;;;;;;;21.88;8.63;;;;;;;20.87;62.47;99743.41;5093859;28;20019;-88
2023/09/03 05:12:06;;;;;;;12.07;8.63;;;;;;;20.76;62.73;99762.44;5094082;28;20031;-88
2023/09/03 05:14:32;;;;;;;17.60;9.07;;;;;;;20.79;62.39;99733.22;5096036;28;20079;-89
2023/09/03 05:16:57;;;;;;;21.15;9.82;;;;;;;20.79;62.58;99747.44;5097696;28;20653;-89
2023/09/03 05:19:22;;;;;;;15.20;8.45;;;;;;;20.74;63.23;99744.97;5097514;28;20092;-88
2023/09/03 05:21:48;;;;;;;14.07;9.30;;;;;;;20.90;62.29;99751.19;5097504;28;20088;-89
2023/09/03 05:24:13;;;;;;;12.70;8.57;;;;;;;21.00;61.47;99741.06;5097305;28;20088;-88
2023/09/03 05:26:39;;;;;;;23.95;8.93;;;;;;;21.08;60.69;99733.34;5097555;28;20023;-88
2023/09/03 05:29:04;;;;;;;12.27;8.45;;;;;;;21.37;59.80;99730.63;5097184;28;20027;-89
2023/09/03 05:31:30;;;;;;;11.25;7.72;;;;;;;21.45;59.35;99742.81;5115472;28;20110;-88
2023/09/03 05:34:00;;;;;;;17.55;8.63;;;;;;;21.65;59.19;99740.41;5097660;28;20403;-89
2023/09/03 05:36:26;;;;;;;15.98;7.88;;;;;;;22.00;57.96;99738.00;5097038;28;20549;-89
2023/09/03 05:38:52;;;;;;;20.02;8.10;;;;;;;21.89;58.46;99749.41;5097238;28;20031;-89
2023/09/03 05:41:18;;;;;;;22.08;8.60;;;;;;;21.86;58.86;99741.69;5096933;28;20075;-89
2023/09/03 05:43:46;;;;;;;10.77;7.80;;;;;;;21.78;59.37;99740.88;5096952;28;20023;-88
2023/09/03 05:46:12;;;;;;;22.73;7.45;;;;;;;21.86;59.66;99736.00;5097186;28;20436;-88
2023/09/03 05:48:37;;;;;;;10.93;7.45;;;;;;;22.15;59.15;99742.50;5097007;28;20027;-89
2023/09/03 05:51:05;;;;;;;10.80;6.80;;;;;;;22.39;58.34;99736.34;5097041;28;20475;-89
2023/09/03 05:53:33;;;;;;;8.63;7.20;;;;;;;22.53;57.46;99729.84;5097033;28;20441;-89
2023/09/03 05:56:07;;;;;;;16.42;7.32;;;;;;;22.63;57.64;99733.88;5096804;28;20028;-89
2023/09/03 05:58:33;;;;;;;10.63;7.50;;;;;;;22.77;57.08;99733.81;5096816;28;20023;-89
2023/09/03 06:01:09;;;;;;;14.63;8.02;;;;;;;22.67;57.87;99732.66;5114719;28;20034;-89
2023/09/03 06:03:35;;;;;;;12.10;9.27;;;;;;;22.89;56.53;99732.56;5096607;28;20019;-89
2023/09/03 06:06:10;;;;;;;11.93;6.60;;;;;;;23.02;56.10;99740.66;5096607;28;20020;-89
2023/09/03 06:08:37;;;;;;;16.42;8.95;;;;;;;23.16;55.06;99720.63;5096953;28;20016;-89
2023/09/03 06:11:04;;;;;;;12.23;7.50;;;;;;;23.11;54.39;99741.03;5096665;28;20031;-88
2023/09/03 06:13:33;;;;;;;9.27;7.18;;;;;;;22.91;53.42;99720.75;5096709;28;20023;-89
2023/09/03 06:15:58;;;;;;;13.25;7.40;;;;;;;23.00;52.85;99718.25;5096385;28;20023;-89
2023/09/03 06:18:25;;;;;;;10.65;6.72;;;;;;;22.88;53.09;99710.16;5096613;28;20407;-89
2023/09/03 06:20:56;;;;;;;11.15;7.65;;;;;;;22.99;52.91;99705.22;5096454;28;20059;-89
2023/09/03 06:23:22;;;;;;;8.43;6.80;;;;;;;23.37;52.23;99736.84;5096176;28;20031;-89
2023/09/03 06:25:49;;;;;;;8.57;6.88;;;;;;;23.37;52.20;99751.09;5095961;28;20027;-88
2023/09/03 06:28:15;;;;;;;14.88;7.28;;;;;;;23.52;51.95;99748.16;5096265;28;20495;-89
2023/09/03 06:30:40;;;;;;;8.20;7.00;;;;;;;23.52;51.03;99736.75;5095994;28;20114;-89
2023/09/03 06:33:06;;;;;;;11.23;7.18;;;;;;;23.60;51.55;99738.31;5114372;28;20024;-89
2023/09/03 06:35:31;;;;;;;10.18;6.80;;;;;;;23.59;51.20;99724.47;5095768;28;20040;-89
2023/09/03 06:37:58;;;;;;;9.65;7.15;;;;;;;23.86;50.65;99747.50;5096217;28;20105;-89
2023/09/03 06:40:25;;;;;;;10.55;6.93;;;;;;;23.89;51.31;99717.31;5096026;28;20059;-89
2023/09/03 06:42:51;;;;;;;13.85;7.80;;;;;;;24.36;49.24;99742.63;5096121;28;20020;-89
2023/09/03 06:45:17;;;;;;;11.85;7.47;;;;;;;24.37;48.68;99727.91;5096141;28;20027;-88
2023/09/03 06:47:43;;;;;;;9.52;6.53;;;;;;;24.16;48.54;99717.50;5095828;28;20027;-89
2023/09/03 06:50:09;;;;;;;9.48;6.95;;;;;;;24.47;49.11;99736.81;5095853;28;20032;-88
2023/09/03 06:52:35;;;;;;;26.25;8.10;;;;;;;24.62;47.72;99726.81;5095734;28;20510;-89
2023/09/03 06:55:01;;;;;;;9.00;6.43;;;;;;;24.57;47.61;99717.91;5095565;28;20392;-89
2023/09/03 06:57:27;;;;;;;11.45;6.35;;;;;;;24.68;47.76;99725.13;5095524;28;20026;-88
2023/09/03 06:59:53;;;;;;;8.50;5.95;;;;;;;25.17;47.39;99752.78;5095678;28;20031;-89
2023/09/03 07:02:19;;;;;;;8.02;6.45;;;;;;;25.13;47.04;99728.31;5113634;28;20023;-89
2023/09/03 07:04:44;;;;;;;9.52;6.47;;;;;;;25.56;46.47;99759.19;5095597;28;20019;-89
2023/09/03 07:07:10;;;;;;;17.05;6.53;;;;;;;25.54;46.58;99755.97;5095645;28;20043;-89
2023/09/03 07:09:35;;;;;;;22.63;7.63;;;;;;;25.58;46.64;99735.88;5113565;28;20437;-89
2023/09/03 07:12:01;;;;;;;12.93;7.30;;;;;;;25.76;46.63;99759.31;5095380;28;20028;-88
2023/09/03 07:14:36;;;;;;;10.55;7.30;;;;;;;25.75;45.72;99754.03;5095132;28;20023;-88
2023/09/03 07:17:03;;;;;;;10.65;6.25;;;;;;;25.43;45.99;99721.75;5095419;28;20036;-88
2023/09/03 07:19:29;;;;;;;14.70;7.00;;;;;;;25.72;45.98;99752.81;5095290;28;20088;-89
2023/09/03 07:21:55;;;;;;;8.75;6.20;;;;;;;25.40;45.99;99722.63;5095209;28;20041;-89
2023/09/03 07:24:20;;;;;;;7.65;5.38;;;;;;;25.52;46.25;99752.72;5095250;28;20106;-89
2023/09/03 07:26:46;;;;;;;7.72;5.13;;;;;;;25.35;46.63;99738.22;5113142;28;20024;-89
2023/09/03 07:29:13;;;;;;;9.13;5.28;;;;;;;25.58;45.54;99719.50;5095253;28;20027;-89
2023/09/03 07:31:41;;;;;;;7.38;5.28;;;;;;;25.88;45.40;99749.31;5095413;28;20027;-89
2023/09/03 07:34:11;;;;;;;9.00;6.30;;;;;;;26.18;44.27;99730.38;5094863;28;20032;-89
2023/09/03 07:36:37;;;;;;;8.60;5.70;;;;;;;26.57;44.00;99742.38;5094761;28;20043;-89
2023/09/03 07:39:06;;;;;;;6.50;5.60;;;;;;;26.76;43.08;99757.19;5094527;28;20031;-88
2023/09/03 07:41:35;;;;;;;15.30;5.73;;;;;;;26.42;43.52;99747.56;5095221;28;20029;-89
2023/09/03 07:44:00;;;;;;;15.95;6.63;;;;;;;26.79;42.65;99730.50;5095060;28;20034;-89
2023/09/03 07:46:37;;;;;;;9.60;4.85;;;;;;;26.76;42.20;99732.19;5094832;28;20483;-89
2023/09/03 07:49:02;;;;;;;7.47;5.95;;;;;;;26.82;41.51;99711.59;5095103;28;20066;-90
2023/09/03 07:51:28;;;;;;;8.95;5.82;;;;;;;26.73;42.66;99735.94;5094700;28;20063;-89
2023/09/03 07:53:54;;;;;;;21.63;6.45;;;;;;;27.01;41.94;99722.25;5094629;28;20024;-89
2023/09/03 07:56:20;;;;;;;8.27;4.00;;;;;;;27.14;40.98;99739.63;5094799;28;20026;-89
2023/09/03 07:58:46;;;;;;;7.32;4.50;;;;;;;27.02;40.43;99703.78;5094570;28;20385;-89
2023/09/03 08:01:12;;;;;;;8.35;4.93;;;;;;;26.86;41.44;99726.66;5094618;28;20088;-89
2023/09/03 08:03:43;;;;;;;9.73;4.25;;;;;;;27.18;40.87;99720.25;5094643;28;20050;-89
2023/09/03 08:06:09;;;;;;;8.95;4.85;;;;;;;27.62;40.43;99733.66;5094713;28;20035;-89
2023/09/03 08:08:35;;;;;;;10.82;6.60;;;;;;;27.90;40.45;99714.09;5094413;28;20039;-88
2023/09/03 08:11:01;;;;;;;8.88;4.10;;;;;;;27.77;39.03;99721.81;5094601;28;20430;-89
2023/09/03 08:13:27;;;;;;;10.10;6.65;;;;;;;28.22;39.54;99728.94;5112681;28;20031;-90
2023/09/03 08:15:53;;;;;;;7.22;4.68;;;;;;;28.35;37.95;99712.53;5094576;28;20027;-89
2023/09/03 08:18:20;;;;;;;7.82;4.47;;;;;;;28.67;37.94;99733.88;5094561;28;20141;-89
2023/09/03 08:20:48;;;;;;;5.13;4.63;;;;;;;28.98;37.46;99719.03;5094607;28;20046;-90
2023/09/03 08:23:14;;;;;;;6.85;4.75;;;;;;;29.23;37.20;99733.94;5094473;28;20118;-89
2023/09/03 08:25:42;;;;;;;7.82;4.95;;;;;;;29.08;36.26;99736.41;5094460;28;20074;-89
2023/09/03 08:28:09;;;;;;;5.00;4.28;;;;;;;28.91;36.63;99733.63;5094475;28;20107;-90
2023/09/03 08:30:35;;;;;;;4.40;4.00;;;;;;;29.15;36.70;99704.53;5094528;28;20459;-89
2023/09/03 08:33:01;;;;;;;5.13;3.78;;;;;;;29.44;36.25;99685.59;5094581;28;20084;-90
2023/09/03 08:35:29;;;;;;;4.80;4.25;;;;;;;29.08;35.21;99704.75;5112226;28;20133;-89
2023/09/03 08:37:55;;;;;;;7.13;4.25;;;;;;;29.39;35.22;99715.75;5094257;28;20035;-89
2023/09/03 08:40:21;;;;;;;3.90;3.50;;;;;;;29.37;34.67;99701.00;5094343;28;20403;-89
2023/09/03 08:42:47;;;;;;;7.60;4.13;;;;;;;29.64;33.68;99708.41;5094114;28;20042;-89
2023/09/03 08:45:16;;;;;;;3.80;3.40;;;;;;;30.08;35.42;99727.97;5112427;28;20051;-89
2023/09/03 08:47:44;;;;;;;5.72;4.40;;;;;;;29.58;33.04;99701.63;5094181;28;20019;-89
2023/09/03 08:50:14;;;;;;;15.38;4.45;;;;;;;29.70;33.06;99723.84;5097507;28;20031;-89
2023/09/03 08:52:41;;;;;;;7.82;3.83;;;;;;;29.88;31.72;99725.31;5097992;28;20028;-89
2023/09/03 08:55:12;;;;;;;5.75;3.97;;;;;;;29.85;31.53;99701.09;5098415;28;20092;-89
2023/09/03 08:57:37;;;;;;;5.03;3.58;;;;;;;30.22;32.49;99703.59;5097929;28;20392;-89
2023/09/03 09:00:07;;;;;;;9.23;4.07;;;;;;;30.20;32.14;99709.03;5098045;28;20031;-89
2023/09/03 09:02:34;;;;;;;4.82;4.00;;;;;;;30.43;32.21;99695.47;5098032;28;20020;-89
2023/09/03 09:05:05;;;;;;;4.85;3.58;;;;;;;29.99;31.24;99679.63;5097882;28;20028;-89
2023/09/03 09:07:32;;;;;;;6.18;3.47;;;;;;;30.50;31.75;99709.59;5116189;28;20487;-90
2023/09/03 09:10:00;;;;;;;6.32;4.88;;;;;;;30.10;31.50;99682.16;5098199;28;20066;-90
2023/09/03 09:12:41;;;;;;;5.00;3.67;;;;;;;30.59;32.20;99694.44;5098129;28;20077;-89
2023/09/03 09:15:07;;;;;;;14.90;4.38;;;;;;;30.86;31.80;99687.31;5097639;28;20027;-89
2023/09/03 09:17:41;;;;;;;6.05;3.60;;;;;;;31.03;31.20;99674.25;5097677;28;20027;-90
2023/09/03 09:20:08;;;;;;;8.88;3.35;;;;;;;31.32;28.78;99690.50;5097792;28;20484;-90
2023/09/03 09:22:44;;;;;;;13.57;3.50;;;;;;;31.34;27.58;99701.56;5097961;28;20034;-89
2023/09/03 09:25:24;;;;;;;4.47;3.28;;;;;;;31.48;28.17;99695.19;5097631;28;20016;-90
2023/09/03 09:27:51;;;;;;;12.80;3.70;;;;;;;31.42;28.42;99674.00;5097473;28;20495;-89
2023/09/03 09:30:27;;;;;;;4.70;3.53;;;;;;;31.48;28.21;99682.84;5097322;28;20081;-89
2023/09/03 09:33:07;;;;;;;20.42;3.40;;;;;;;31.53;27.37;99685.09;5097254;28;20030;-89
2023/09/03 09:35:33;;;;;;;;;;;;;;;31.56;27.13;99680.47;5097738;28;20039;-90
2023/09/03 09:38:06;;;;;;;6.38;3.55;;;;;;;31.54;27.20;99671.47;5097252;28;19918;-89
2023/09/03 09:40:31;;;;;;;4.72;3.05;;;;;;;31.64;27.34;99679.69;5097357;28;20027;-89
2023/09/03 09:43:02;;;;;;;5.07;3.30;;;;;;;31.78;28.09;99663.81;5097130;28;20110;-89
2023/09/03 09:45:28;;;;;;;7.15;3.58;;;;;;;31.48;26.55;99643.19;5097421;28;20024;-89
2023/09/03 09:48:08;;;;;;;3.63;3.10;;;;;;;31.87;27.16;99660.16;5097138;28;20034;-90
2023/09/03 09:50:38;;;;;;;3.85;3.05;;;;;;;31.92;25.81;99652.94;5097148;28;20060;-90
2023/09/03 09:53:28;;;;;;;3.65;3.35;;;;;;;32.03;25.11;99649.59;5097046;28;20035;-90
2023/09/03 09:56:01;;;;;;;5.88;3.50;;;;;;;31.75;25.96;99644.56;5097589;28;20118;-90
2023/09/03 09:58:37;;;;;;;7.85;3.10;;;;;;;31.92;24.67;99632.72;5096787;28;20032;-89
2023/09/03 10:01:04;;;;;;;7.75;2.85;;;;;;;31.82;25.11;99633.97;5096036;28;20106;-89
2023/09/03 10:03:46;;;;;;;9.10;3.53;;;;;;;32.45;26.03;99640.31;5096921;28;20122;-89
2023/09/03 10:06:21;;;;;;;5.40;3.55;;;;;;;32.26;26.00;99627.91;5096719;28;20031;-90
2023/09/03 10:08:49;;;;;;;6.80;3.88;;;;;;;32.39;26.07;99636.44;5096764;28;20035;-89
2023/09/03 10:11:15;;;;;;;3.35;3.00;;;;;;;32.59;25.67;99624.38;5096670;28;20073;-89
2023/09/03 10:13:42;;;;;;;3.63;3.00;;;;;;;32.58;25.07;99631.47;5096446;28;20024;-89
2023/09/03 10:16:09;;;;;;;3.75;3.22;;;;;;;32.58;24.48;99617.00;5096622;28;20028;-89
2023/09/03 10:18:39;;;;;;;5.68;3.20;;;;;;;32.02;25.08;99614.09;5096699;28;20027;-89
2023/09/03 10:21:09;;;;;;;7.20;3.22;;;;;;;31.74;25.32;99613.22;5096543;28;20114;-90
2023/09/03 10:23:48;;;;;;;4.53;3.40;;;;;;;31.21;25.61;99604.22;5096477;28;20020;-90
2023/09/03 10:26:15;;;;;;;7.45;3.38;;;;;;;31.77;26.27;99578.38;5114580;28;20011;-89
2023/09/03 10:28:43;;;;;;;5.50;3.03;;;;;;;31.87;24.93;99590.78;5114335;28;20102;-89
2023/09/03 10:31:10;;;;;;;7.32;2.70;;;;;;;31.90;25.07;99563.00;5096367;28;20112;-90
2023/09/03 10:33:39;;;;;;;4.43;2.88;;;;;;;31.60;25.06;99571.28;5096066;28;20380;-89
2023/09/03 10:36:21;;;;;;;4.90;2.88;;;;;;;32.16;24.77;99594.47;5092590;28;20055;-90
2023/09/03 10:38:47;;;;;;;3.17;2.38;;;;;;;32.20;25.04;99561.22;5092579;28;20415;-90
2023/09/03 10:41:22;;;;;;;5.53;3.03;;;;;;;32.93;23.83;99598.41;5092675;28;20470;-90
2023/09/03 10:43:52;;;;;;;7.28;3.03;;;;;;;32.73;24.33;99564.97;5093688;28;20096;-90
2023/09/03 10:46:20;;;;;;;7.32;2.80;;;;;;;33.15;24.65;99582.88;5092659;28;20062;-90
2023/09/03 10:48:56;;;;;;;3.10;2.67;;;;;;;32.93;23.90;99588.91;5093677;28;20091;-90
2023/09/03 10:51:38;;;;;;;14.13;3.10;;;;;;;33.14;23.51;99569.69;5095025;28;20632;-89
2023/09/03 10:54:18;;;;;;;7.93;3.17;;;;;;;33.46;23.68;99575.97;5094859;28;20024;-89
2023/09/03 10:57:24;;;;;;;3.25;2.90;;;;;;;33.80;22.76;99578.81;5093177;28;20383;-90
2023/09/03 11:00:04;;;;;;;4.03;2.60;;;;;;;33.70;23.26;99569.38;5092913;28;20028;-90
2023/09/03 11:02:31;;;;;;;13.25;3.78;;;;;;;33.37;24.01;99552.84;5095588;28;20028;-90
2023/09/03 11:05:20;;;;;;;4.18;2.45;;;;;;;33.35;23.74;99535.94;5097075;28;20051;-89
2023/09/03 11:07:47;;;;;;;5.30;2.90;;;;;;;33.66;22.92;99552.16;5094967;28;20043;-90
2023/09/03 11:10:23;;;;;;;4.38;3.00;;;;;;;33.80;23.16;99552.72;5092695;28;21075;-90
2023/09/03 11:12:48;;;;;;;3.67;2.83;;;;;;;33.74;23.08;99550.50;5092126;28;20028;-90
2023/09/03 11:15:15;;;;;;;5.50;3.15;;;;;;;33.69;23.48;99548.28;5092776;28;20389;-89
2023/09/03 11:17:51;;;;;;;3.35;3.00;;;;;;;33.58;22.94;99519.06;5092100;28;20020;-90
2023/09/03 11:20:31;;;;;;;5.10;2.97;;;;;;;34.12;22.24;99556.81;5092844;28;20115;-89
2023/09/03 11:22:58;;;;;;;3.63;2.80;;;;;;;33.71;23.14;99537.00;5093338;28;20019;-89
2023/09/03 11:25:37;;;;;;;3.35;2.88;;;;;;;33.50;23.74;99546.81;5092071;28;20565;-90
2023/09/03 11:28:08;;;;;;;5.97;3.38;;;;;;;33.67;23.28;99553.78;5092243;28;20024;-90
2023/09/03 11:30:34;;;;;;;3.85;2.60;;;;;;;33.61;23.44;99535.47;5093269;28;20024;-90
2023/09/03 11:33:00;;;;;;;4.97;2.90;;;;;;;33.75;23.27;99523.09;5092987;28;20031;-89
2023/09/03 11:35:27;;;;;;;25.05;3.90;;;;;;;34.00;23.14;99528.91;5093716;28;20412;-90
2023/09/03 11:37:53;;;;;;;6.88;2.90;;;;;;;33.99;22.87;99518.59;5095709;28;20055;-90